Time;durP1;ratioP1;P1;durP2;ratioP2;P2;SDS_P1;SDS_P2;PMS_P1;PMS_P2;Temp;Humidity;BMP_temperature;BMP_pressure;BME280_temperature;BME280_humidity;BME280_pressure;Samples;Min_cycle;Max_cycle;Signal;HPM_P1;HPM_P2
2022/05/05 00:09:23;;;;;;;10.07;4.82;;;;;;;15.60;68.47;100794.41;18430176;32;20101;-69
2022/05/05 00:19:28;;;;;;;9.18;3.97;;;;;;;15.77;67.68;100796.78;18430930;32;20145;-69
2022/05/05 00:29:31;;;;;;;9.75;4.20;;;;;;;15.92;67.18;100807.03;18430516;32;20099;-69
2022/05/05 00:39:36;;;;;;;9.00;4.82;;;;;;;16.19;65.89;100807.44;18429766;32;20143;-69
2022/05/05 00:49:39;;;;;;;10.10;4.72;;;;;;;16.36;64.62;100798.34;18429080;32;20112;-69
2022/05/05 00:59:45;;;;;;;8.25;4.03;;;;;;;16.07;66.07;100802.41;18428666;32;20171;-69
2022/05/05 01:09:49;;;;;;;10.52;4.03;;;;;;;16.40;64.82;100792.09;18427943;32;20357;-69
2022/05/05 01:19:54;;;;;;;10.88;4.62;;;;;;;15.68;68.09;100803.94;18431951;32;20115;-69
2022/05/05 01:30:00;;;;;;;9.13;4.05;;;;;;;15.38;69.42;100829.84;18436070;32;20698;-69
2022/05/05 01:40:04;;;;;;;10.38;3.65;;;;;;;15.81;67.54;100832.66;18435750;32;20127;-69
2022/05/05 01:50:09;;;;;;;9.35;3.92;;;;;;;16.04;66.87;100847.25;18435191;32;20144;-69
2022/05/05 02:00:14;;;;;;;10.57;4.00;;;;;;;16.66;63.40;100832.88;18435410;32;20093;-69
2022/05/05 02:10:20;;;;;;;8.50;3.87;;;;;;;16.30;64.85;100843.22;18434720;32;20097;-69
2022/05/05 02:20:23;;;;;;;8.23;3.28;;;;;;;16.74;62.53;100854.66;18434836;32;20089;-69
2022/05/05 02:30:29;;;;;;;7.10;3.35;;;;;;;16.03;66.02;100872.69;18434030;32;20105;-69
2022/05/05 02:40:33;;;;;;;8.07;3.50;;;;;;;15.91;67.03;100868.50;18434429;32;20105;-69
2022/05/05 02:50:38;;;;;;;12.30;4.28;;;;;;;15.52;71.37;100874.34;18419723;32;20112;-69
2022/05/05 03:00:43;;;;;;;9.55;4.07;;;;;;;15.31;73.01;100872.03;18433793;32;20089;-69
2022/05/05 03:10:48;;;;;;;9.48;4.00;;;;;;;15.33;73.47;100868.50;18433144;32;20111;-69
2022/05/05 03:20:51;;;;;;;9.02;4.55;;;;;;;16.27;69.64;100848.56;18433131;32;20109;-70
2022/05/05 03:30:56;;;;;;;10.10;5.07;;;;;;;14.97;75.23;100831.28;18432280;32;20141;-70
2022/05/05 03:40:59;;;;;;;11.15;5.15;;;;;;;14.77;77.42;100824.53;18431710;32;20116;-70
2022/05/05 03:51:04;;;;;;;10.68;5.32;;;;;;;15.09;75.54;100799.59;18432147;32;20097;-70
2022/05/05 04:01:07;;;;;;;11.95;5.12;;;;;;;15.66;72.33;100795.19;18417362;32;20469;-70
2022/05/05 04:11:12;;;;;;;10.02;5.07;;;;;;;14.74;78.00;100821.09;18431031;32;20381;-70
2022/05/05 04:21:15;;;;;;;10.88;4.80;;;;;;;15.52;74.68;100826.13;18430787;32;20175;-69
2022/05/05 04:31:21;;;;;;;11.43;4.93;;;;;;;14.93;77.80;100843.59;18430309;32;20179;-70
2022/05/05 04:41:25;;;;;;;11.38;5.05;;;;;;;14.91;78.13;100876.94;18429852;32;20135;-70
2022/05/05 04:51:29;;;;;;;10.32;5.22;;;;;;;15.54;74.53;100885.72;18416862;32;20101;-70
2022/05/05 05:01:33;;;;;;;10.35;4.60;;;;;;;15.58;74.37;100880.41;18422642;32;20098;-70
2022/05/05 05:11:37;;;;;;;10.60;5.28;;;;;;;16.40;70.90;100884.31;18436998;32;20115;-70
2022/05/05 05:21:40;;;;;;;10.32;4.97;;;;;;;15.99;73.24;100892.09;18436753;32;20088;-70
2022/05/05 05:31:45;;;;;;;10.07;4.50;;;;;;;16.00;76.05;100901.72;18435401;32;20425;-70
2022/05/05 05:41:54;;;;;;;9.50;4.03;;;;;;;16.21;74.16;100907.50;18428600;32;20347;-71
2022/05/05 05:51:58;;;;;;;10.43;5.03;;;;;;;17.05;69.09;100901.50;18430057;32;20448;-71
2022/05/05 06:12:23;;;;;;;10.82;5.45;;;;;;;15.93;76.34;100895.69;18431018;32;20115;-70
2022/05/05 06:22:27;;;;;;;8.73;4.18;;;;;;;16.10;76.61;100910.31;18430250;32;20089;-69
2022/05/05 06:32:31;;;;;;;9.52;4.32;;;;;;;16.36;76.40;100909.88;18429563;32;20089;-70
2022/05/05 06:42:34;;;;;;;7.97;3.65;;;;;;;16.84;74.43;100933.56;18431774;32;20202;-69
2022/05/05 06:52:39;;;;;;;9.27;4.62;;;;;;;17.09;69.18;100939.25;18431125;32;20410;-70
2022/05/05 07:02:43;;;;;;;8.82;3.85;;;;;;;17.54;69.75;100942.69;18429878;32;20089;-71
2022/05/05 07:12:49;;;;;;;7.87;3.03;;;;;;;17.53;70.34;100948.87;18390504;32;20101;-70
2022/05/05 07:22:53;;;;;;;6.12;3.20;;;;;;;18.55;61.65;100942.88;18429581;32;20096;-70
2022/05/05 07:32:58;;;;;;;8.13;3.22;;;;;;;18.38;64.97;100954.78;18416573;32;20140;-70
2022/05/05 07:51:53;;;;;;;8.47;3.63;;;;;;;18.54;66.59;100943.81;18666666;31;75248;-68
2022/05/05 08:01:57;;;;;;;6.25;3.12;;;;;;;18.76;64.35;100941.44;18613677;31;20092;-68
2022/05/05 08:12:02;;;;;;;8.35;3.00;;;;;;;19.15;63.73;100944.81;18607611;31;20102;-68
2022/05/05 08:22:05;;;;;;;5.97;2.45;;;;;;;19.71;56.70;100961.66;18607961;31;20092;-69
2022/05/05 08:32:10;;;;;;;5.90;2.78;;;;;;;21.02;54.65;100960.81;18607165;31;20123;-68
2022/05/05 08:42:13;;;;;;;5.75;2.90;;;;;;;21.44;55.22;100973.38;18606285;31;20100;-69
2022/05/05 08:52:19;;;;;;;6.07;2.92;;;;;;;22.18;52.52;100974.88;18603253;31;20114;-67
2022/05/05 09:02:22;;;;;;;5.75;2.65;;;;;;;22.02;53.68;100969.34;18566164;31;20439;-68
2022/05/05 09:12:27;;;;;;;6.53;2.53;;;;;;;23.15;46.33;100962.72;18561945;31;20089;-69
2022/05/05 09:22:30;;;;;;;5.35;2.67;;;;;;;22.94;49.18;100962.78;18561538;31;20120;-68
2022/05/05 09:32:37;;;;;;;5.15;2.72;;;;;;;22.85;48.49;100977.34;18562331;31;20085;-68
2022/05/05 09:42:42;;;;;;;3.95;1.98;;;;;;;24.56;43.47;100971.06;18561417;31;20099;-68
2022/05/05 10:13:32;;;;;;;3.90;1.95;;;;;;;24.41;41.83;100959.37;18559839;32;20088;-68
2022/05/05 10:23:49;;;;;;;4.30;1.80;;;;;;;24.90;38.63;100960.44;18545999;31;20092;-68
2022/05/05 10:34:04;;;;;;;4.37;1.55;;;;;;;24.61;39.05;100949.47;18560851;31;20146;-68
2022/05/05 10:44:21;;;;;;;3.28;1.50;;;;;;;24.86;35.65;100945.53;18558908;31;20093;-68
2022/05/05 10:54:26;;;;;;;2.92;1.77;;;;;;;24.87;36.43;100941.91;18558547;31;20403;-68
2022/05/05 11:04:30;;;;;;;3.25;1.83;;;;;;;25.09;36.66;100946.94;18559839;32;20114;-68
2022/05/05 11:24:57;;;;;;;4.37;2.05;;;;;;;24.82;36.47;100928.81;18620736;31;20096;-67
2022/05/05 11:35:03;;;;;;;4.22;1.83;;;;;;;25.61;35.20;100905.78;18621421;31;20118;-68
2022/05/05 11:45:07;;;;;;;6.03;2.25;;;;;;;25.55;36.48;100902.56;18620387;31;20122;-68
2022/05/05 11:55:14;;;;;;;4.87;2.42;;;;;;;25.92;36.52;100896.91;18622227;31;20371;-68
2022/05/05 12:05:18;;;;;;;4.32;2.28;;;;;;;25.99;36.28;100887.53;18622370;31;20354;-68
2022/05/05 12:15:24;;;;;;;5.75;2.00;;;;;;;26.07;34.93;100869.22;18606728;31;20152;-68
2022/05/05 12:25:28;;;;;;;5.82;2.30;;;;;;;26.40;34.85;100852.09;18591173;31;20092;-68
2022/05/05 12:35:34;;;;;;;3.55;1.83;;;;;;;26.37;32.42;100846.94;18579725;31;20414;-68
2022/05/05 12:45:38;;;;;;;3.92;1.83;;;;;;;26.37;33.19;100833.56;18621957;31;20110;-68
2022/05/05 13:06:04;;;;;;;2.40;1.58;;;;;;;27.43;28.86;100826.84;18624870;31;20079;-68
2022/05/05 13:16:27;;;;;;;3.50;1.67;;;;;;;27.29;30.01;100817.06;18612930;31;20160;-69
2022/05/05 13:26:31;;;;;;;3.40;1.62;;;;;;;27.39;27.28;100803.88;18614258;31;20178;-69
2022/05/05 13:36:37;;;;;;;4.95;1.95;;;;;;;26.44;30.27;100807.28;18628267;31;20110;-68
2022/05/05 13:46:46;;;;;;;2.62;1.50;;;;;;;26.03;32.50;100804.34;18612870;31;20092;-68
2022/05/05 13:56:52;;;;;;;3.12;1.77;;;;;;;25.49;32.21;100792.38;18603623;31;20157;-68
2022/05/05 14:06:57;;;;;;;3.67;1.95;;;;;;;25.30;33.02;100805.09;18610157;31;20119;-68
2022/05/05 14:17:03;;;;;;;4.45;1.77;;;;;;;25.53;33.88;100803.78;18626122;31;20111;-68
2022/05/05 14:27:07;;;;;;;6.68;2.55;;;;;;;26.27;32.98;100785.09;18569620;31;20147;-68
2022/05/05 14:37:12;;;;;;;4.07;2.42;;;;;;;26.00;32.09;100788.50;18627890;31;20378;-69
2022/05/05 14:47:15;;;;;;;3.87;2.08;;;;;;;25.99;35.48;100781.44;18591188;31;20104;-68
2022/05/05 14:57:20;;;;;;;3.22;1.75;;;;;;;26.03;37.15;100779.44;18558078;32;20093;-68
2022/05/05 15:07:24;;;;;;;3.92;2.05;;;;;;;25.53;35.93;100778.84;18589036;31;20376;-68
2022/05/05 15:17:29;;;;;;;3.72;2.12;;;;;;;25.47;33.68;100785.41;18622748;31;20088;-68
2022/05/05 15:27:33;;;;;;;4.53;2.10;;;;;;;25.58;34.94;100776.78;18623391;31;20095;-69
2022/05/05 15:37:37;;;;;;;3.37;1.98;;;;;;;25.14;35.78;100783.75;18620698;31;20120;-68
2022/05/05 15:47:43;;;;;;;3.45;1.60;;;;;;;25.50;34.41;100777.22;18622690;31;20092;-68
2022/05/05 15:57:47;;;;;;;3.25;2.05;;;;;;;25.42;34.96;100766.97;18602851;31;20095;-69
2022/05/05 16:07:51;;;;;;;5.35;2.10;;;;;;;25.41;37.08;100767.03;18621468;31;20096;-68
2022/05/05 16:17:56;;;;;;;4.30;2.22;;;;;;;25.49;36.05;100772.78;18620754;31;20436;-68
2022/05/05 16:38:24;;;;;;;5.40;2.33;;;;;;;24.47;39.50;100779.41;18627946;31;20205;-68
2022/05/05 16:48:27;;;;;;;6.87;2.28;;;;;;;24.17;40.47;100783.66;18614462;31;20103;-68
2022/05/05 16:58:32;;;;;;;5.82;2.55;;;;;;;23.87;42.60;100770.97;18628966;31;20120;-68
2022/05/05 17:08:35;;;;;;;5.12;2.50;;;;;;;23.74;43.69;100786.75;18627778;31;20096;-68
2022/05/05 17:18:39;;;;;;;7.53;2.53;;;;;;;23.80;43.63;100788.22;18626476;31;20115;-68
2022/05/05 17:28:43;;;;;;;6.22;2.60;;;;;;;23.70;42.79;100783.38;18612749;31;20110;-68
2022/05/05 17:38:48;;;;;;;5.12;2.78;;;;;;;23.82;43.14;100789.87;18622145;31;20114;-68
2022/05/05 17:59:13;;;;;;;8.37;2.87;;;;;;;22.45;46.41;100815.03;18547092;32;20127;-68
2022/05/05 18:09:16;;;;;;;5.85;2.85;;;;;;;21.60;50.05;100824.00;18562950;31;20346;-67
2022/05/05 18:19:20;;;;;;;5.10;2.70;;;;;;;21.25;50.98;100829.00;18547098;32;20096;-67
2022/05/05 18:29:24;;;;;;;6.95;3.37;;;;;;;20.84;53.19;100833.19;18566296;31;20118;-67
2022/05/05 18:39:28;;;;;;;7.03;3.17;;;;;;;20.29;55.61;100855.50;18544728;31;20111;-67
2022/05/05 18:49:32;;;;;;;7.50;3.60;;;;;;;19.18;59.73;100852.09;18547414;31;20147;-69
2022/05/05 18:59:38;;;;;;;6.97;3.70;;;;;;;18.89;60.37;100862.62;18560196;31;20140;-67
2022/05/05 19:09:42;;;;;;;7.03;3.72;;;;;;;18.30;62.02;100878.34;18552312;31;20103;-67
2022/05/05 19:19:48;;;;;;;7.57;4.05;;;;;;;17.96;62.44;100888.91;18596844;31;20107;-67
2022/05/05 19:29:52;;;;;;;8.25;3.90;;;;;;;17.34;64.90;100897.38;18563291;31;20614;-67
2022/05/05 19:39:57;;;;;;;10.30;4.87;;;;;;;16.90;66.56;100917.63;18574890;31;20108;-67
2022/05/05 20:01:13;;;;;;;8.90;4.70;;;;;;;16.57;67.21;100938.47;18543304;32;20384;-67
2022/05/05 20:11:17;;;;;;;10.68;4.43;;;;;;;16.33;67.72;100945.94;18559857;31;20088;-67
2022/05/05 20:21:21;;;;;;;9.48;4.85;;;;;;;16.13;69.09;100939.25;18593859;31;20357;-66
2022/05/05 20:31:25;;;;;;;9.68;4.60;;;;;;;16.14;67.47;100940.09;18548931;31;20368;-66
2022/05/05 20:41:29;;;;;;;9.07;4.93;;;;;;;15.72;69.21;100943.34;18610377;31;20349;-67
2022/05/05 20:51:32;;;;;;;10.70;5.70;;;;;;;15.18;71.37;100952.88;18550805;31;20093;-64
2022/05/05 21:01:37;;;;;;;9.98;5.30;;;;;;;14.90;71.72;100961.09;18582541;31;20102;-64
2022/05/05 21:11:40;;;;;;;12.20;6.57;;;;;;;14.83;72.05;100963.78;18612667;31;20084;-64
2022/05/05 21:32:06;;;;;;;12.20;5.47;;;;;;;14.98;71.52;100975.00;18620659;31;20096;-66
2022/05/05 21:42:12;;;;;;;10.88;5.32;;;;;;;14.49;73.09;100969.31;18628819;31;20420;-64
2022/05/05 21:52:15;;;;;;;11.25;6.03;;;;;;;14.66;73.00;100968.31;18625616;31;20125;-64
2022/05/05 22:02:21;;;;;;;10.20;5.25;;;;;;;14.33;73.75;100965.13;18626087;31;20084;-64
2022/05/05 22:12:25;;;;;;;10.18;5.90;;;;;;;14.39;73.51;100954.53;18610450;31;20377;-64
2022/05/05 22:22:29;;;;;;;11.15;5.05;;;;;;;14.02;74.14;100972.34;18570533;31;20461;-64
2022/05/05 22:32:32;;;;;;;11.93;5.87;;;;;;;14.52;72.45;100977.19;18562577;32;20107;-64
2022/05/05 22:42:37;;;;;;;12.05;4.97;;;;;;;13.78;74.30;100983.03;18563328;32;20085;-64
2022/05/05 22:52:40;;;;;;;11.23;5.50;;;;;;;14.31;73.18;100972.13;18561654;32;20416;-64
2022/05/05 23:02:45;;;;;;;11.02;5.53;;;;;;;14.45;73.78;100964.12;18562495;32;20381;-64
2022/05/05 23:12:48;;;;;;;12.77;5.43;;;;;;;14.42;74.20;100965.91;18561614;32;20115;-64
2022/05/05 23:22:53;;;;;;;10.40;5.57;;;;;;;14.40;73.34;100972.94;18560810;32;20107;-64
2022/05/05 23:32:56;;;;;;;11.18;5.53;;;;;;;14.02;74.29;100974.97;18560326;32;20444;-64
2022/05/05 23:43:01;;;;;;;10.93;5.22;;;;;;;14.33;73.42;100978.25;18559604;32;20388;-64
2022/05/05 23:53:05;;;;;;;10.50;5.70;;;;;;;14.29;72.46;100986.13;18559153;32;20088;-64
